• Join FlightAware (Why Join?)
  • Login
  • US Flag 
04:07AM EDT


 

Airport Tracker/Info


-or-


 

Live Flight TrackerFlight Track Log ✈ UPS1121 ✈ 16-Aug-2013 ✈ KALB - KBDL

Flight Track Log - Related Links

Times and Time Zones

All times are in EDT time to prevent confusion due to time zone crossing. See the UPS1121 flight status page for this flight to view local times or setup timezone preferences in your user account.

Time Position Orientation Groundspeed Altitude Reporting Facility
EDT Latitude Longitude Course Direction KTS MPH feet Rate Location/Type
09:44PM 42.7297 -73.8081 148° Southeast 161 185 1,600  Level Boston Center
09:46PM 42.6617 -73.7503 148° Southeast 224 258 5,100 3,000 Climbing Boston Center
09:47PM 42.5983 -73.6389 128° Southeast 284 327 9,900 3,060 Climbing Boston Center
09:48PM 42.5431 -73.5447 129° Southeast 354 407 11,100 660 Climbing Boston Center
09:49PM 42.5000 -73.4650 126° Southeast 376 433 11,000  Descending Boston Center
09:50PM 42.4319 -73.3656 133° Southeast 365 420 11,100  Climbing Boston Center
09:51PM 42.3619 -73.2689 134° Southeast 363 418 11,100 -120 Level Boston Center
09:52PM 42.3189 -73.1589 118° Southeast 326 375 10,900 -780 Descending Boston Center
09:53PM 42.2986 -73.0575 105° East 294 338 9,700 -1,500 Descending Boston Center
09:54PM 42.2742 -72.9536 108° East 292 336 8,000 -1,800 Descending Boston Center
09:55PM 42.2497 -72.8497 108° East 286 329 6,100 -2,100 Descending Boston Center
09:56PM 42.2061 -72.7625 124° Southeast 268 308 3,900 -1,500 Descending Boston Center
09:57PM 42.1564 -72.7006 137° Southeast 229 264 3,100 -660 Descending Boston Center
09:58PM 42.1189 -72.6556 138° Southeast 151 174 2,600 -420 Descending Boston Center
09:59PM 42.0814 -72.6192 144° Southeast 162 186 2,300 -300 Descending Boston Center
10:00PM 42.0397 -72.5911 153° Southeast 168 193 2,000 -360 Descending Boston Center
10:01PM 41.9958 -72.6133 201° Southwest 152 175 1,500 -540 Descending Boston Center
10:02PM 41.9750 -72.6383 222° Southwest 112 129 1,000 -600 Descending Boston Center
10:03PM 41.9522 -72.6661 222° Southwest 107 123 500 -540 Descending Boston Center
10:05PM 41.9333 -72.6833 180° South  Level FlightAware Approximate
10:12PM 41.9392 -72.6834 180° South  Level Estimated